Time;durP1;ratioP1;P1;durP2;ratioP2;P2;SDS_P1;SDS_P2;PMS_P1;PMS_P2;Temp;Humidity;BMP_temperature;BMP_pressure;BME280_temperature;BME280_humidity;BME280_pressure;Samples;Min_cycle;Max_cycle;Signal;HPM_P1;HPM_P2
2023/11/10 00:01:02;;;;;;;5.13;1.10;;;;;;;;;;4924346;29;20510;-75
2023/11/10 00:03:32;;;;;;;8.27;1.00;;;;;;;;;;4924975;29;20078;-75
2023/11/10 00:06:03;;;;;;;9.20;1.02;;;;;;;;;;4925186;29;20060;-75
2023/11/10 00:08:34;;;;;;;2.92;1.10;;;;;;;;;;4923016;29;20063;-75
2023/11/10 00:11:04;;;;;;;5.95;1.08;;;;;;;;;;4924802;29;20058;-76
2023/11/10 00:13:35;;;;;;;4.85;1.00;;;;;;;;;;4924050;29;20047;-76
2023/11/10 00:16:06;;;;;;;8.32;1.67;;;;;;;;;;4924526;29;20052;-75
2023/11/10 00:18:37;;;;;;;6.82;1.48;;;;;;;;;;4923125;29;20070;-78
2023/11/10 00:21:07;;;;;;;6.43;0.93;;;;;;;;;;4923901;29;20051;-74
2023/11/10 00:23:37;;;;;;;2.70;0.88;;;;;;;;;;4921827;29;20052;-75
2023/11/10 00:26:08;;;;;;;6.28;1.05;;;;;;;;;;4906062;29;20424;-73
2023/11/10 00:28:39;;;;;;;7.43;1.55;;;;;;;;;;4904072;29;20052;-73
2023/11/10 00:31:10;;;;;;;8.15;1.35;;;;;;;;;;4903915;29;20060;-76
2023/11/10 00:33:40;;;;;;;6.82;1.08;;;;;;;;;;4905206;29;20059;-73
2023/11/10 00:36:10;;;;;;;2.95;1.00;;;;;;;;;;4903465;29;20384;-74
2023/11/10 00:38:41;;;;;;;6.53;1.30;;;;;;;;;;4906090;29;20492;-73
2023/11/10 00:41:12;;;;;;;7.85;0.98;;;;;;;;;;4905550;29;20052;-74
2023/11/10 00:43:43;;;;;;;3.60;0.93;;;;;;;;;;4904054;29;20534;-75
2023/11/10 00:46:14;;;;;;;5.82;1.05;;;;;;;;;;4905747;29;20063;-74
2023/11/10 00:48:51;;;;;;;8.60;1.33;;;;;;;;;;4904549;29;20044;-75
2023/11/10 00:51:22;;;;;;;12.50;1.42;;;;;;;;;;4888944;29;20044;-75
2023/11/10 00:53:55;;;;;;;12.00;1.20;;;;;;;;;;4904726;29;20056;-75
2023/11/10 00:56:26;;;;;;;4.57;1.02;;;;;;;;;;4903732;29;20060;-75
2023/11/10 00:58:58;;;;;;;2.90;0.93;;;;;;;;;;4906873;29;20055;-75
2023/11/10 01:01:29;;;;;;;13.88;1.60;;;;;;;;;;4908347;29;20044;-73
2023/11/10 01:04:03;;;;;;;5.15;1.35;;;;;;;;;;4908365;29;20051;-73
2023/11/10 01:06:41;;;;;;;6.35;1.02;;;;;;;;;;4908350;29;20451;-78
2023/11/10 01:09:16;;;;;;;5.85;0.98;;;;;;;;;;4906632;29;20063;-76
2023/11/10 01:11:48;;;;;;;10.25;1.55;;;;;;;;;;4906711;29;20059;-73
2023/11/10 01:14:18;;;;;;;5.90;0.85;;;;;;;;;;4922900;29;20392;-73
2023/11/10 01:16:48;;;;;;;8.80;1.90;;;;;;;;;;4908404;29;20062;-74
2023/11/10 01:19:19;;;;;;;5.82;0.90;;;;;;;;;;4909837;29;20052;-73
2023/11/10 01:21:51;;;;;;;5.13;0.75;;;;;;;;;;4908436;29;20048;-77
2023/11/10 01:24:21;;;;;;;3.28;1.33;;;;;;;;;;4906873;29;20052;-75
2023/11/10 01:26:53;;;;;;;11.45;1.15;;;;;;;;;;4907585;29;20044;-75
2023/11/10 01:29:23;;;;;;;6.32;1.05;;;;;;;;;;4908403;29;20044;-74
2023/11/10 01:31:54;;;;;;;8.65;1.10;;;;;;;;;;4906610;29;20063;-76
2023/11/10 01:34:27;;;;;;;9.23;1.20;;;;;;;;;;4891739;29;20546;-76
2023/11/10 01:36:58;;;;;;;12.05;1.60;;;;;;;;;;4906817;29;20063;-76
2023/11/10 01:39:28;;;;;;;10.60;1.00;;;;;;;;;;4906880;29;20048;-77
2023/11/10 01:41:58;;;;;;;6.38;1.30;;;;;;;;;;4906830;29;20060;-75
2023/11/10 01:44:31;;;;;;;11.00;1.20;;;;;;;;;;4906645;29;20064;-78
2023/11/10 01:47:07;;;;;;;10.52;1.35;;;;;;;;;;4906605;29;20063;-75
2023/11/10 01:49:38;;;;;;;5.80;0.85;;;;;;;;;;4907389;29;20060;-78
2023/11/10 01:52:09;;;;;;;4.03;0.82;;;;;;;;;;4908248;29;20106;-76
2023/11/10 01:54:39;;;;;;;5.43;1.00;;;;;;;;;;4907901;29;20057;-77
2023/11/10 01:57:10;;;;;;;6.85;0.90;;;;;;;;;;4907829;29;20048;-75
2023/11/10 01:59:45;;;;;;;9.25;1.10;;;;;;;;;;4906745;29;20423;-75
2023/11/10 02:02:15;;;;;;;9.50;1.00;;;;;;;;;;4907927;29;20056;-75
2023/11/10 02:04:47;;;;;;;7.97;0.88;;;;;;;;;;4908097;29;20048;-76
2023/11/10 02:07:17;;;;;;;10.15;1.00;;;;;;;;;;4906319;29;20062;-77
2023/11/10 02:09:47;;;;;;;6.20;0.82;;;;;;;;;;4906696;29;20048;-77
2023/11/10 02:12:18;;;;;;;5.75;0.98;;;;;;;;;;4908116;29;20043;-75
2023/11/10 02:14:50;;;;;;;10.02;1.02;;;;;;;;;;4906168;29;20094;-75
2023/11/10 02:17:20;;;;;;;7.13;0.93;;;;;;;;;;4907506;29;20111;-75
2023/11/10 02:19:51;;;;;;;5.57;0.98;;;;;;;;;;4907354;29;20063;-75
2023/11/10 02:22:23;;;;;;;1.98;0.80;;;;;;;;;;4906070;29;20060;-77
2023/11/10 02:24:56;;;;;;;8.15;1.35;;;;;;;;;;4905965;29;20056;-74
2023/11/10 02:27:26;;;;;;;3.47;0.90;;;;;;;;;;4907032;29;20063;-76
2023/11/10 02:29:56;;;;;;;4.00;0.75;;;;;;;;;;4907972;29;20978;-77
2023/11/10 02:32:27;;;;;;;4.40;0.90;;;;;;;;;;4907412;29;20040;-74
2023/11/10 02:34:58;;;;;;;8.75;1.02;;;;;;;;;;4906785;29;20428;-74
2023/11/10 02:37:29;;;;;;;5.57;0.80;;;;;;;;;;4906099;29;20052;-74
2023/11/10 02:40:01;;;;;;;5.43;1.08;;;;;;;;;;4907452;29;20047;-76
2023/11/10 02:42:32;;;;;;;6.70;1.40;;;;;;;;;;4907419;29;20500;-77
2023/11/10 02:45:03;;;;;;;10.07;1.58;;;;;;;;;;4907279;29;20063;-74
2023/11/10 02:47:35;;;;;;;9.35;1.58;;;;;;;;;;4905200;29;20063;-77
2023/11/10 02:50:06;;;;;;;5.95;0.90;;;;;;;;;;4906696;29;20495;-76
2023/11/10 02:52:37;;;;;;;5.03;0.80;;;;;;;;;;4907415;29;20048;-76
2023/11/10 02:55:08;;;;;;;4.03;0.85;;;;;;;;;;4907076;29;20059;-79
2023/11/10 02:57:39;;;;;;;7.82;1.00;;;;;;;;;;4907250;29;20083;-76
2023/11/10 03:00:10;;;;;;;5.47;0.90;;;;;;;;;;4906511;29;20052;-75
2023/11/10 03:02:42;;;;;;;5.95;1.13;;;;;;;;;;4906516;29;20602;-74
2023/11/10 03:05:12;;;;;;;7.05;1.02;;;;;;;;;;4907018;29;20059;-77
2023/11/10 03:07:43;;;;;;;4.90;0.80;;;;;;;;;;4906481;29;20056;-78
2023/11/10 03:10:14;;;;;;;8.60;1.42;;;;;;;;;;4906605;29;20071;-77
2023/11/10 03:12:44;;;;;;;8.57;1.20;;;;;;;;;;4906204;29;20067;-77
2023/11/10 03:15:15;;;;;;;4.97;1.15;;;;;;;;;;4907398;29;20051;-76
2023/11/10 03:17:47;;;;;;;7.57;1.08;;;;;;;;;;4906330;29;20044;-75
2023/11/10 03:20:19;;;;;;;5.05;1.20;;;;;;;;;;4902277;29;20067;-77
2023/11/10 03:22:52;;;;;;;7.40;1.05;;;;;;;;;;4906336;29;20048;-75
2023/11/10 03:25:23;;;;;;;2.17;0.60;;;;;;;;;;4906144;29;20731;-74
2023/11/10 03:27:54;;;;;;;4.35;0.88;;;;;;;;;;4906605;29;20396;-78
2023/11/10 03:30:24;;;;;;;6.30;1.20;;;;;;;;;;4905877;29;20051;-76
2023/11/10 03:32:54;;;;;;;5.43;0.90;;;;;;;;;;4904887;29;20060;-75
2023/11/10 03:35:25;;;;;;;3.25;0.63;;;;;;;;;;4904375;29;20048;-76
2023/11/10 03:37:55;;;;;;;6.95;0.90;;;;;;;;;;4904621;29;20535;-74
2023/11/10 03:40:26;;;;;;;7.00;1.65;;;;;;;;;;4906365;29;20058;-78
2023/11/10 03:42:57;;;;;;;5.97;1.00;;;;;;;;;;4906687;29;20040;-75
2023/11/10 03:45:27;;;;;;;4.80;1.05;;;;;;;;;;4905745;29;20059;-76
2023/11/10 03:47:59;;;;;;;7.40;1.13;;;;;;;;;;4905904;29;20149;-76
2023/11/10 03:50:29;;;;;;;4.82;1.15;;;;;;;;;;4906399;29;20068;-76
2023/11/10 03:53:00;;;;;;;6.30;1.00;;;;;;;;;;4906350;29;20052;-75
2023/11/10 03:55:31;;;;;;;8.98;1.30;;;;;;;;;;4905632;29;20052;-77
2023/11/10 03:58:02;;;;;;;8.45;0.90;;;;;;;;;;4904627;29;20511;-75
2023/11/10 04:00:33;;;;;;;5.63;1.20;;;;;;;;;;4905519;29;20044;-75
2023/11/10 04:03:16;;;;;;;5.47;1.20;;;;;;;;;;4905912;29;20543;-77
2023/11/10 04:05:48;;;;;;;8.07;1.38;;;;;;;;;;4906075;29;20044;-76
2023/11/10 04:08:19;;;;;;;3.60;0.93;;;;;;;;;;4906110;29;20044;-75
2023/11/10 04:10:50;;;;;;;6.53;1.00;;;;;;;;;;4905342;29;20048;-74
2023/11/10 04:13:20;;;;;;;7.22;1.10;;;;;;;;;;4905808;29;20059;-75
2023/11/10 04:15:51;;;;;;;5.43;1.17;;;;;;;;;;4905985;29;20067;-75
2023/11/10 04:18:26;;;;;;;4.82;1.00;;;;;;;;;;4889212;29;20052;-75
2023/11/10 04:20:57;;;;;;;3.53;0.90;;;;;;;;;;4905966;29;20051;-75
2023/11/10 04:23:28;;;;;;;4.30;1.00;;;;;;;;;;4904438;29;20059;-77
2023/11/10 04:25:58;;;;;;;12.55;1.45;;;;;;;;;;4906272;29;20504;-78
2023/11/10 04:28:29;;;;;;;11.15;1.52;;;;;;;;;;4905679;29;20048;-74
2023/11/10 04:30:59;;;;;;;6.30;1.08;;;;;;;;;;4905931;29;20059;-77
2023/11/10 04:33:29;;;;;;;9.48;1.30;;;;;;;;;;4907174;29;20056;-75
2023/11/10 04:36:00;;;;;;;3.88;1.00;;;;;;;;;;4909607;29;20059;-77
2023/11/10 04:38:31;;;;;;;6.03;1.27;;;;;;;;;;4908679;29;20055;-74
2023/11/10 04:41:02;;;;;;;5.93;1.17;;;;;;;;;;4909708;29;20063;-75
2023/11/10 04:43:33;;;;;;;5.28;1.20;;;;;;;;;;4909176;29;20055;-76
2023/11/10 04:46:04;;;;;;;5.50;1.00;;;;;;;;;;4908901;29;20530;-76
2023/11/10 04:48:35;;;;;;;6.82;1.35;;;;;;;;;;4909219;29;20048;-76
2023/11/10 04:51:05;;;;;;;8.65;0.90;;;;;;;;;;4909076;29;20059;-76
2023/11/10 04:53:37;;;;;;;5.38;1.10;;;;;;;;;;4909404;29;20491;-74
2023/11/10 04:56:08;;;;;;;1.23;0.80;;;;;;;;;;4909373;29;20056;-75
2023/11/10 04:58:41;;;;;;;4.85;1.13;;;;;;;;;;4908662;29;20055;-75
2023/11/10 05:01:12;;;;;;;7.43;1.30;;;;;;;;;;4908293;29;20048;-77
2023/11/10 05:03:44;;;;;;;8.60;1.30;;;;;;;;;;4909366;29;20063;-76
2023/11/10 05:06:15;;;;;;;5.65;1.25;;;;;;;;;;4907341;29;20083;-76
2023/11/10 05:08:45;;;;;;;9.80;1.42;;;;;;;;;;4908338;29;20051;-79
2023/11/10 05:11:16;;;;;;;8.85;1.20;;;;;;;;;;4908805;29;20427;-76
2023/11/10 05:13:47;;;;;;;8.05;1.10;;;;;;;;;;4908908;29;20372;-74
2023/11/10 05:16:19;;;;;;;7.63;1.20;;;;;;;;;;4908401;29;20500;-75
2023/11/10 05:18:50;;;;;;;4.45;1.10;;;;;;;;;;4908450;29;20052;-74
2023/11/10 05:21:23;;;;;;;4.07;1.05;;;;;;;;;;4906812;29;20154;-76
2023/11/10 05:23:55;;;;;;;4.10;0.82;;;;;;;;;;4907797;29;20052;-75
2023/11/10 05:26:25;;;;;;;14.60;1.40;;;;;;;;;;4908590;29;20040;-76
2023/11/10 05:28:56;;;;;;;10.18;1.40;;;;;;;;;;4908182;29;20051;-76
2023/11/10 05:31:27;;;;;;;6.60;1.20;;;;;;;;;;4908191;29;20052;-76
2023/11/10 05:33:58;;;;;;;8.52;1.08;;;;;;;;;;4907756;29;20158;-77
2023/11/10 05:36:28;;;;;;;7.97;1.05;;;;;;;;;;4907826;29;20528;-75
2023/11/10 05:39:00;;;;;;;4.63;1.13;;;;;;;;;;4908430;29;20048;-77
2023/11/10 05:41:34;;;;;;;6.43;1.27;;;;;;;;;;4908244;29;20048;-75
2023/11/10 05:44:04;;;;;;;7.30;1.52;;;;;;;;;;4908210;29;20056;-77
2023/11/10 05:46:34;;;;;;;6.55;1.50;;;;;;;;;;4907787;29;20048;-77
2023/11/10 05:49:08;;;;;;;9.52;2.10;;;;;;;;;;4908055;29;20510;-76
2023/11/10 05:51:39;;;;;;;4.20;1.17;;;;;;;;;;4908292;29;20048;-75
2023/11/10 05:54:09;;;;;;;6.78;1.05;;;;;;;;;;4908660;29;20511;-77
2023/11/10 05:56:39;;;;;;;5.75;1.10;;;;;;;;;;4908178;29;20058;-76
2023/11/10 05:59:10;;;;;;;4.68;1.15;;;;;;;;;;4907845;29;20051;-76
2023/11/10 06:01:42;;;;;;;8.07;1.17;;;;;;;;;;4907612;29;20079;-76
2023/11/10 06:04:14;;;;;;;4.78;1.08;;;;;;;;;;4906595;29;20489;-75
2023/11/10 06:06:59;;;;;;;9.68;1.50;;;;;;;;;;4907474;29;20519;-78
2023/11/10 06:09:31;;;;;;;5.82;1.10;;;;;;;;;;4908295;29;20055;-75
2023/11/10 06:12:02;;;;;;;7.95;1.60;;;;;;;;;;4907643;29;20074;-76
2023/11/10 06:14:32;;;;;;;3.03;1.50;;;;;;;;;;4907187;29;20048;-77
2023/11/10 06:17:02;;;;;;;5.10;1.20;;;;;;;;;;4907782;29;20492;-74
2023/11/10 06:19:34;;;;;;;4.65;1.00;;;;;;;;;;4908454;29;20385;-75
2023/11/10 06:22:04;;;;;;;3.45;0.85;;;;;;;;;;4907012;29;20048;-75
2023/11/10 06:24:35;;;;;;;3.63;1.00;;;;;;;;;;4907162;29;20056;-75
2023/11/10 06:27:06;;;;;;;5.70;1.05;;;;;;;;;;4907459;29;20048;-74
2023/11/10 06:29:36;;;;;;;5.85;1.40;;;;;;;;;;4907270;29;20528;-74
2023/11/10 06:32:11;;;;;;;4.47;1.02;;;;;;;;;;4907413;29;20423;-76
2023/11/10 06:34:42;;;;;;;7.05;1.55;;;;;;;;;;4905673;29;20052;-76
2023/11/10 06:37:12;;;;;;;3.47;1.42;;;;;;;;;;4908759;29;20396;-77
2023/11/10 06:39:43;;;;;;;2.80;1.00;;;;;;;;;;4906941;29;20052;-75
2023/11/10 06:42:14;;;;;;;8.60;1.10;;;;;;;;;;4906937;29;20055;-75
2023/11/10 06:44:46;;;;;;;4.80;1.33;;;;;;;;;;4905752;29;20055;-73
2023/11/10 06:47:16;;;;;;;4.80;1.30;;;;;;;;;;4906511;29;20051;-74
2023/11/10 06:49:47;;;;;;;3.88;1.10;;;;;;;;;;4907042;29;20056;-76
2023/11/10 06:52:17;;;;;;;8.30;1.58;;;;;;;;;;4907294;29;20583;-73
2023/11/10 06:54:49;;;;;;;5.68;1.42;;;;;;;;;;4906764;29;20063;-74
2023/11/10 06:57:23;;;;;;;3.53;1.00;;;;;;;;;;4905924;29;20056;-74
2023/11/10 06:59:56;;;;;;;5.28;0.98;;;;;;;;;;4921129;29;20056;-77
2023/11/10 07:02:27;;;;;;;6.55;1.20;;;;;;;;;;4906524;29;20064;-75
2023/11/10 07:04:58;;;;;;;4.43;1.00;;;;;;;;;;4906698;29;20059;-75
2023/11/10 07:07:29;;;;;;;2.28;1.02;;;;;;;;;;4907396;29;20052;-76
2023/11/10 07:09:59;;;;;;;3.05;1.25;;;;;;;;;;4906499;29;20059;-77
2023/11/10 07:12:31;;;;;;;6.97;0.90;;;;;;;;;;4906880;29;20056;-75
2023/11/10 07:15:04;;;;;;;5.90;0.93;;;;;;;;;;4906509;29;20069;-75
2023/11/10 07:17:36;;;;;;;5.53;1.20;;;;;;;;;;4905835;29;20063;-75
2023/11/10 07:20:11;;;;;;;4.80;0.85;;;;;;;;;;4904998;29;20527;-76
2023/11/10 07:22:42;;;;;;;1.80;0.90;;;;;;;;;;4906132;29;20052;-74
2023/11/10 07:25:13;;;;;;;5.40;1.00;;;;;;;;;;4906033;29;20063;-75
2023/11/10 07:27:45;;;;;;;4.38;1.35;;;;;;;;;;4906460;29;20056;-74
2023/11/10 07:30:14;;;;;;;4.72;1.17;;;;;;;;;;4906143;29;20052;-73
2023/11/10 07:32:45;;;;;;;7.32;1.13;;;;;;;;;;4905592;29;20056;-74
2023/11/10 07:35:17;;;;;;;6.20;1.15;;;;;;;;;;4906034;29;20075;-76
2023/11/10 07:37:49;;;;;;;8.30;1.15;;;;;;;;;;4907504;29;20050;-76
2023/11/10 07:40:20;;;;;;;7.13;1.00;;;;;;;;;;4906682;29;20059;-76
2023/11/10 07:42:54;;;;;;;4.65;1.48;;;;;;;;;;4906738;29;20056;-73
2023/11/10 07:45:24;;;;;;;6.72;1.30;;;;;;;;;;4905898;29;20048;-76
2023/11/10 07:47:55;;;;;;;9.48;1.33;;;;;;;;;;4906209;29;20059;-73
2023/11/10 07:50:25;;;;;;;6.60;1.35;;;;;;;;;;4905825;29;20052;-74
2023/11/10 07:52:55;;;;;;;4.00;1.08;;;;;;;;;;4904438;29;20587;-74
2023/11/10 07:55:27;;;;;;;2.92;1.10;;;;;;;;;;4906600;29;20056;-73
2023/11/10 07:57:58;;;;;;;6.85;1.17;;;;;;;;;;4905820;29;20056;-75
2023/11/10 08:00:28;;;;;;;7.53;1.08;;;;;;;;;;4905626;29;20513;-76
2023/11/10 08:02:59;;;;;;;3.15;1.17;;;;;;;;;;4905343;29;20064;-74
2023/11/10 08:05:30;;;;;;;7.38;1.38;;;;;;;;;;4904966;29;20059;-73
2023/11/10 08:08:02;;;;;;;5.03;1.20;;;;;;;;;;4906438;29;20059;-73
2023/11/10 08:10:34;;;;;;;7.18;1.30;;;;;;;;;;4910387;29;20435;-74
2023/11/10 08:13:04;;;;;;;5.35;0.93;;;;;;;;;;4910404;29;20530;-74
2023/11/10 08:15:34;;;;;;;4.65;1.25;;;;;;;;;;4909967;29;20701;-73
2023/11/10 08:18:05;;;;;;;8.07;1.20;;;;;;;;;;4910329;29;20045;-76
2023/11/10 08:20:35;;;;;;;5.82;1.23;;;;;;;;;;4909287;29;20602;-73
2023/11/10 08:23:06;;;;;;;3.10;0.93;;;;;;;;;;4910206;29;20054;-73
2023/11/10 08:25:36;;;;;;;4.03;1.50;;;;;;;;;;4909611;29;20586;-75
2023/11/10 08:28:07;;;;;;;7.35;1.10;;;;;;;;;;4909619;29;20047;-73
2023/11/10 08:30:38;;;;;;;7.22;1.00;;;;;;;;;;4909638;29;20052;-74
2023/11/10 08:33:10;;;;;;;5.35;0.80;;;;;;;;;;4909798;29;20045;-74
2023/11/10 08:35:41;;;;;;;3.88;1.50;;;;;;;;;;4909400;29;20397;-76
2023/11/10 08:38:11;;;;;;;2.95;1.35;;;;;;;;;;4908945;29;20530;-73
2023/11/10 08:40:42;;;;;;;6.65;1.05;;;;;;;;;;4907759;29;20515;-73
2023/11/10 08:43:15;;;;;;;3.70;1.10;;;;;;;;;;4909206;29;20400;-72
2023/11/10 08:45:46;;;;;;;5.75;1.33;;;;;;;;;;4909135;29;20056;-73
2023/11/10 08:48:16;;;;;;;5.93;1.40;;;;;;;;;;4908892;29;20044;-74
2023/11/10 08:50:47;;;;;;;7.47;1.20;;;;;;;;;;4909196;29;20044;-74
2023/11/10 08:53:18;;;;;;;6.93;1.20;;;;;;;;;;4909522;29;20055;-73
2023/11/10 08:55:49;;;;;;;8.15;1.33;;;;;;;;;;4909119;29;20063;-73
2023/11/10 08:58:19;;;;;;;8.50;1.17;;;;;;;;;;4909387;29;20059;-74
2023/11/10 09:00:52;;;;;;;5.38;0.82;;;;;;;;;;4909740;29;20048;-74
2023/11/10 09:03:22;;;;;;;4.97;1.05;;;;;;;;;;4909182;29;20084;-76
2023/11/10 09:05:52;;;;;;;4.75;1.17;;;;;;;;;;4909236;29;20051;-75
2023/11/10 09:08:23;;;;;;;4.30;1.20;;;;;;;;;;4908574;29;20424;-74
2023/11/10 09:10:54;;;;;;;5.20;1.10;;;;;;;;;;4908132;29;20055;-74
2023/11/10 09:13:25;;;;;;;3.67;0.98;;;;;;;;;;4908650;29;20048;-75
2023/11/10 09:15:55;;;;;;;2.72;1.00;;;;;;;;;;4908562;29;20048;-74
2023/11/10 09:18:31;;;;;;;3.00;0.98;;;;;;;;;;4908660;29;20056;-78
2023/11/10 09:21:02;;;;;;;5.32;1.17;;;;;;;;;;4907282;29;20550;-76
2023/11/10 09:23:31;;;;;;;3.47;1.33;;;;;;;;;;4907999;29;20052;-73
2023/11/10 09:26:03;;;;;;;4.97;1.13;;;;;;;;;;4906739;29;20059;-75
2023/11/10 09:28:34;;;;;;;14.40;1.52;;;;;;;;;;4908802;29;20052;-75
2023/11/10 09:31:05;;;;;;;3.47;1.30;;;;;;;;;;4908757;29;20431;-74
2023/11/10 09:33:35;;;;;;;5.88;1.00;;;;;;;;;;4908667;29;20412;-81
2023/11/10 09:36:08;;;;;;;8.27;1.25;;;;;;;;;;4909055;29;20060;-75
2023/11/10 09:38:39;;;;;;;7.20;1.33;;;;;;;;;;4908244;29;20505;-77
2023/11/10 09:41:17;;;;;;;7.70;1.60;;;;;;;;;;4907841;29;20063;-75
2023/11/10 09:43:48;;;;;;;10.73;1.98;;;;;;;;;;4907693;29;20099;-75
2023/11/10 09:46:20;;;;;;;8.40;1.17;;;;;;;;;;4906206;29;20060;-76
2023/11/10 09:48:53;;;;;;;7.80;1.35;;;;;;;;;;4907923;29;20052;-75
2023/11/10 09:51:26;;;;;;;6.32;1.00;;;;;;;;;;4908277;29;20519;-76
2023/11/10 09:53:59;;;;;;;5.82;1.20;;;;;;;;;;4907858;29;20048;-76
2023/11/10 09:56:35;;;;;;;5.18;1.00;;;;;;;;;;4907564;29;20122;-75
2023/11/10 09:59:06;;;;;;;6.18;1.00;;;;;;;;;;4907786;29;20044;-76
2023/11/10 10:01:37;;;;;;;19.58;1.30;;;;;;;;;;4907950;29;20059;-76
2023/11/10 10:04:07;;;;;;;5.22;0.98;;;;;;;;;;4908474;29;20063;-74
2023/11/10 10:06:39;;;;;;;8.73;1.20;;;;;;;;;;4907868;29;20066;-75
2023/11/10 10:09:10;;;;;;;6.18;1.27;;;;;;;;;;4907607;29;20052;-76
2023/11/10 10:11:41;;;;;;;12.73;1.50;;;;;;;;;;4908235;29;20960;-74
2023/11/10 10:14:12;;;;;;;5.45;1.08;;;;;;;;;;4908125;29;20052;-75
2023/11/10 10:16:56;;;;;;;8.07;1.15;;;;;;;;;;4907395;29;20048;-75
2023/11/10 10:19:29;;;;;;;13.48;1.70;;;;;;;;;;4907952;29;20064;-78
2023/11/10 10:22:00;;;;;;;17.27;1.35;;;;;;;;;;4907536;29;20397;-75
2023/11/10 10:24:30;;;;;;;6.35;1.25;;;;;;;;;;4907175;29;20060;-76
2023/11/10 10:27:01;;;;;;;9.40;1.05;;;;;;;;;;4907325;29;20399;-74
2023/11/10 10:29:33;;;;;;;7.07;1.10;;;;;;;;;;4907303;29;20530;-73
2023/11/10 10:32:04;;;;;;;5.85;1.10;;;;;;;;;;4906190;29;20048;-74
2023/11/10 10:34:34;;;;;;;3.75;1.00;;;;;;;;;;4907349;29;20059;-76
2023/11/10 10:37:05;;;;;;;7.45;1.52;;;;;;;;;;4907849;29;20055;-75
2023/11/10 10:39:36;;;;;;;11.20;2.03;;;;;;;;;;4907411;29;20546;-74
2023/11/10 10:42:14;;;;;;;11.40;1.40;;;;;;;;;;4905328;29;20060;-78
2023/11/10 10:44:45;;;;;;;6.47;1.38;;;;;;;;;;4906917;29;20044;-76
2023/11/10 10:47:17;;;;;;;8.73;1.00;;;;;;;;;;4907495;29;20574;-78
2023/11/10 10:49:49;;;;;;;4.72;1.17;;;;;;;;;;4907233;29;20052;-78
2023/11/10 10:52:20;;;;;;;6.65;1.20;;;;;;;;;;4907189;29;20051;-74
2023/11/10 10:54:51;;;;;;;4.18;1.23;;;;;;;;;;4907219;29;20052;-77
2023/11/10 10:57:23;;;;;;;5.70;1.08;;;;;;;;;;4907138;29;20040;-77
2023/11/10 10:59:54;;;;;;;5.43;1.10;;;;;;;;;;4906575;29;20415;-76
2023/11/10 11:02:29;;;;;;;4.55;1.20;;;;;;;;;;4907669;29;20388;-75
2023/11/10 11:05:37;;;;;;;2.97;0.80;;;;;;;;;;4905475;29;20058;-76
2023/11/10 11:08:48;;;;;;;5.20;0.82;;;;;;;;;;4906777;29;20058;-76
2023/11/10 11:11:55;;;;;;;7.43;1.20;;;;;;;;;;4903051;29;20052;-74
2023/11/10 11:14:48;;;;;;;4.40;0.90;;;;;;;;;;4906555;29;20051;-75
2023/11/10 11:17:34;;;;;;;;;;;;;;;;;;4886993;29;20075;-75
2023/11/10 11:20:06;;;;;;;4.05;1.00;;;;;;;;;;4906926;29;19927;-75
2023/11/10 11:22:38;;;;;;;6.60;1.17;;;;;;;;;;4907076;29;20392;-76
2023/11/10 11:25:09;;;;;;;5.13;1.17;;;;;;;;;;4906799;29;20052;-74
2023/11/10 11:27:40;;;;;;;4.70;1.05;;;;;;;;;;4906640;29;20055;-74
2023/11/10 11:30:15;;;;;;;9.70;1.00;;;;;;;;;;4906304;29;20523;-75
2023/11/10 11:32:46;;;;;;;5.75;1.50;;;;;;;;;;4906833;29;20407;-77
2023/11/10 11:35:18;;;;;;;6.05;1.33;;;;;;;;;;4906505;29;20687;-76
2023/11/10 11:37:49;;;;;;;6.30;1.27;;;;;;;;;;4906192;29;20048;-74
2023/11/10 11:40:19;;;;;;;12.80;1.65;;;;;;;;;;4906097;29;20048;-76
2023/11/10 11:42:49;;;;;;;6.32;1.42;;;;;;;;;;4905794;29;20059;-76
2023/11/10 11:45:20;;;;;;;7.85;1.98;;;;;;;;;;4906370;29;20052;-76
2023/11/10 11:47:52;;;;;;;3.40;1.20;;;;;;;;;;4905289;29;20059;-77
2023/11/10 11:50:24;;;;;;;4.90;1.20;;;;;;;;;;4905821;29;20063;-76
2023/11/10 11:52:54;;;;;;;6.07;1.10;;;;;;;;;;4905971;29;20527;-75
2023/11/10 11:55:25;;;;;;;16.67;1.40;;;;;;;;;;4904758;29;20051;-76
2023/11/10 11:57:58;;;;;;;4.72;0.98;;;;;;;;;;4906644;29;20525;-74
2023/11/10 12:00:28;;;;;;;4.72;1.00;;;;;;;;;;4906779;29;20063;-76
2023/11/10 12:02:58;;;;;;;5.78;1.30;;;;;;;;;;4906330;29;20589;-74
2023/11/10 12:05:30;;;;;;;5.72;1.38;;;;;;;;;;4906355;29;20058;-75
2023/11/10 12:08:01;;;;;;;4.88;1.00;;;;;;;;;;4905341;29;20364;-77
2023/11/10 12:10:32;;;;;;;5.05;1.30;;;;;;;;;;4905724;29;20523;-74
2023/11/10 12:13:03;;;;;;;6.53;1.33;;;;;;;;;;4906062;29;20669;-75
2023/11/10 12:15:34;;;;;;;3.40;0.93;;;;;;;;;;4905737;29;20056;-77
2023/11/10 12:18:05;;;;;;;3.88;1.17;;;;;;;;;;4905998;29;20500;-77
2023/11/10 12:20:36;;;;;;;3.83;1.48;;;;;;;;;;4905678;29;20669;-76
2023/11/10 12:23:06;;;;;;;3.67;1.13;;;;;;;;;;4904057;29;20810;-75
2023/11/10 12:25:37;;;;;;;7.90;1.30;;;;;;;;;;4905578;29;20415;-74
2023/11/10 12:28:11;;;;;;;4.03;1.10;;;;;;;;;;4905915;29;20060;-74
2023/11/10 12:30:42;;;;;;;4.35;1.05;;;;;;;;;;4906273;29;20052;-76
2023/11/10 12:33:12;;;;;;;2.90;1.10;;;;;;;;;;4906628;29;20044;-75
2023/11/10 12:35:44;;;;;;;3.75;1.17;;;;;;;;;;4906077;29;20044;-75
2023/11/10 12:38:16;;;;;;;4.10;1.30;;;;;;;;;;4906000;29;20052;-74
2023/11/10 12:40:52;;;;;;;8.05;1.92;;;;;;;;;;4906402;29;20059;-76
2023/11/10 12:43:23;;;;;;;5.15;1.20;;;;;;;;;;4905186;29;20055;-74
2023/11/10 12:45:54;;;;;;;4.68;1.20;;;;;;;;;;4905203;29;20613;-74
2023/11/10 12:48:25;;;;;;;4.07;1.17;;;;;;;;;;4905180;29;20067;-76
2023/11/10 12:51:02;;;;;;;3.25;0.82;;;;;;;;;;4905886;29;20048;-74
2023/11/10 12:53:40;;;;;;;7.03;2.78;;;;;;;;;;4907214;29;20056;-73
2023/11/10 12:56:10;;;;;;;4.32;1.23;;;;;;;;;;4908505;29;20056;-75
2023/11/10 12:58:41;;;;;;;6.10;1.55;;;;;;;;;;4909388;29;20087;-74
2023/11/10 13:01:11;;;;;;;4.28;1.30;;;;;;;;;;4909281;29;20594;-73
2023/11/10 13:03:42;;;;;;;4.88;1.30;;;;;;;;;;4908677;29;20542;-80
2023/11/10 13:06:12;;;;;;;6.55;1.40;;;;;;;;;;4908063;29;20052;-77
2023/11/10 13:08:42;;;;;;;5.35;1.75;;;;;;;;;;4910181;29;20060;-73
2023/11/10 13:11:14;;;;;;;7.25;1.35;;;;;;;;;;4908831;29;20044;-77
2023/11/10 13:13:45;;;;;;;5.88;1.40;;;;;;;;;;4908882;29;20060;-76
2023/11/10 13:16:17;;;;;;;6.65;1.10;;;;;;;;;;4908830;29;20523;-76
2023/11/10 13:18:47;;;;;;;3.17;0.93;;;;;;;;;;4909009;29;20052;-75
2023/11/10 13:21:19;;;;;;;8.45;1.30;;;;;;;;;;4908786;29;20052;-77
2023/11/10 13:23:50;;;;;;;3.65;1.20;;;;;;;;;;4908615;29;20392;-73
2023/11/10 13:26:23;;;;;;;4.28;1.52;;;;;;;;;;4908816;29;20512;-77
2023/11/10 13:28:55;;;;;;;4.88;1.35;;;;;;;;;;4908587;29;20048;-75
2023/11/10 13:31:34;;;;;;;3.42;1.20;;;;;;;;;;4908404;29;20052;-75
2023/11/10 13:34:09;;;;;;;6.75;1.58;;;;;;;;;;4908680;29;20059;-75
2023/11/10 13:36:39;;;;;;;6.50;2.25;;;;;;;;;;4908194;29;20045;-76
2023/11/10 13:39:12;;;;;;;4.57;1.45;;;;;;;;;;4908392;29;20051;-78
2023/11/10 13:41:43;;;;;;;3.42;1.05;;;;;;;;;;4908178;29;20044;-78
2023/11/10 13:44:18;;;;;;;4.25;1.50;;;;;;;;;;4908167;29;20048;-75
2023/11/10 13:46:48;;;;;;;4.38;1.23;;;;;;;;;;4908001;29;20060;-77
2023/11/10 13:49:19;;;;;;;3.15;1.52;;;;;;;;;;4906931;29;20062;-77
2023/11/10 13:51:49;;;;;;;6.40;1.67;;;;;;;;;;4908433;29;20637;-75
2023/11/10 13:54:19;;;;;;;4.95;1.48;;;;;;;;;;4908627;29;20063;-74
2023/11/10 13:56:50;;;;;;;6.85;2.10;;;;;;;;;;4908496;29;20058;-73
2023/11/10 13:59:25;;;;;;;6.85;1.50;;;;;;;;;;4908236;29;20052;-75
2023/11/10 14:01:55;;;;;;;6.72;1.60;;;;;;;;;;4908134;29;20052;-78
2023/11/10 14:04:27;;;;;;;5.80;3.15;;;;;;;;;;4906364;29;20055;-74
2023/11/10 14:06:57;;;;;;;6.13;1.88;;;;;;;;;;4913123;29;20534;-71
2023/11/10 14:09:28;;;;;;;5.07;1.60;;;;;;;;;;4914166;29;20052;-75
2023/11/10 14:12:02;;;;;;;5.75;1.63;;;;;;;;;;4907581;29;20048;-75
2023/11/10 14:14:35;;;;;;;6.05;1.50;;;;;;;;;;4906395;29;20121;-74
2023/11/10 14:17:10;;;;;;;4.38;1.80;;;;;;;;;;4907125;29;20043;-75
2023/11/10 14:19:43;;;;;;;4.88;1.67;;;;;;;;;;4907993;29;20067;-75
2023/11/10 14:22:14;;;;;;;7.05;1.95;;;;;;;;;;4907455;29;20059;-75
2023/11/10 14:24:44;;;;;;;4.50;1.73;;;;;;;;;;4907258;29;20036;-76
2023/11/10 14:27:15;;;;;;;6.30;1.80;;;;;;;;;;4906755;29;20400;-79
2023/11/10 14:29:45;;;;;;;7.07;1.63;;;;;;;;;;4906374;29;20063;-76
2023/11/10 14:32:16;;;;;;;8.02;2.15;;;;;;;;;;4908202;29;20044;-73
2023/11/10 14:34:47;;;;;;;5.22;1.60;;;;;;;;;;4907555;29;20040;-75
2023/11/10 14:37:19;;;;;;;3.75;1.80;;;;;;;;;;4906798;29;20415;-73
2023/11/10 14:39:51;;;;;;;3.28;1.52;;;;;;;;;;4905469;29;20063;-76
2023/11/10 14:42:22;;;;;;;7.65;1.92;;;;;;;;;;4906148;29;20584;-76
2023/11/10 14:44:53;;;;;;;7.53;1.52;;;;;;;;;;4908146;29;20500;-81
2023/11/10 14:47:25;;;;;;;5.13;1.60;;;;;;;;;;4906937;29;20066;-75
2023/11/10 14:50:01;;;;;;;3.08;1.40;;;;;;;;;;4907003;29;20047;-75
2023/11/10 14:52:38;;;;;;;4.38;1.50;;;;;;;;;;4907045;29;20044;-79
2023/11/10 14:55:08;;;;;;;7.10;1.77;;;;;;;;;;4906435;29;20051;-75
2023/11/10 14:57:40;;;;;;;6.43;1.90;;;;;;;;;;4906807;29;20438;-76
2023/11/10 15:00:13;;;;;;;5.65;1.40;;;;;;;;;;4908597;29;20213;-76
2023/11/10 15:02:51;;;;;;;10.93;1.95;;;;;;;;;;4905807;29;20060;-75
2023/11/10 15:05:23;;;;;;;4.47;1.95;;;;;;;;;;4906897;29;20048;-76
2023/11/10 15:07:54;;;;;;;4.32;1.63;;;;;;;;;;4907829;29;20040;-75
2023/11/10 15:10:27;;;;;;;5.20;1.65;;;;;;;;;;4907376;29;20048;-75